Terminal Aerodrome Forecast
Issued by NWS Chicago, IL

Home | Current Version | Previous Version | Graphics & Text | Print | Product List | Glossary Off
Versions: 1 2 3 4 5 6 7 8 9 10 11 12 13 14 15 16 17 18 19 20 21 22 23 24 25

308
FTUS43 KLOT 101507 AAA
TAFRFD
TAF AMD
KRFD 101507Z 1015/1112 25006KT P6SM FEW020 OVC070
      TEMPO 1020/1021 2SM -SN BKN020
     FM102100 19007KT 1 1/2SM -SN SCT010 OVC020
     FM102200 17007KT 3/4SM -SN BKN008 OVC012
     FM110300 14010KT 1 1/2SM -SN SCT008 OVC015
     FM111000 14012KT 3/4SM -SN BR OVC010=

USA.gov is the U.S. government's official web portal to all federal, state and local government web resources and services.